sensor_id;sensor_type;location;lat;lon;timestamp;pressure;altitude;pressure_sealevel;temperature;humidity
77871;BME280;67067;46.850;7.578;2023-10-08T00:00:12;96387.41;;;9.11;51.19
77871;BME280;67067;46.850;7.578;2023-10-08T00:01:35;96386.19;;;9.06;51.34
77871;BME280;67067;46.850;7.578;2023-10-08T00:02:37;96389.03;;;9.05;51.35
77871;BME280;67067;46.850;7.578;2023-10-08T00:03:39;96373.63;;;9.02;51.52
77871;BME280;67067;46.850;7.578;2023-10-08T00:04:42;96379.34;;;8.99;51.59
77871;BME280;67067;46.850;7.578;2023-10-08T00:05:46;96380.16;;;8.99;51.76
77871;BME280;67067;46.850;7.578;2023-10-08T00:06:48;96381.53;;;9.02;51.63
77871;BME280;67067;46.850;7.578;2023-10-08T00:07:50;96382.19;;;8.97;51.64
77871;BME280;67067;46.850;7.578;2023-10-08T00:08:52;96385.34;;;8.81;52.08
77871;BME280;67067;46.850;7.578;2023-10-08T00:10:04;96382.22;;;8.90;51.97
77871;BME280;67067;46.850;7.578;2023-10-08T00:11:06;96379.41;;;8.92;51.65
77871;BME280;67067;46.850;7.578;2023-10-08T00:12:08;96389.53;;;8.95;51.84
77871;BME280;67067;46.850;7.578;2023-10-08T00:13:12;96390.56;;;8.94;51.79
77871;BME280;67067;46.850;7.578;2023-10-08T00:14:16;96386.28;;;8.93;51.89
77871;BME280;67067;46.850;7.578;2023-10-08T00:15:23;96393.19;;;8.94;51.69
77871;BME280;67067;46.850;7.578;2023-10-08T00:16:27;96389.13;;;8.91;51.83
77871;BME280;67067;46.850;7.578;2023-10-08T00:17:30;96387.31;;;8.92;51.94
77871;BME280;67067;46.850;7.578;2023-10-08T00:18:33;96392.38;;;8.93;52.18
77871;BME280;67067;46.850;7.578;2023-10-08T00:19:36;96396.03;;;8.92;51.99
77871;BME280;67067;46.850;7.578;2023-10-08T00:20:39;96394.59;;;8.97;51.94
77871;BME280;67067;46.850;7.578;2023-10-08T00:21:48;96391.16;;;8.96;51.93
77871;BME280;67067;46.850;7.578;2023-10-08T00:22:50;96397.53;;;8.82;51.92
77871;BME280;67067;46.850;7.578;2023-10-08T00:23:56;96393.63;;;8.91;51.74
77871;BME280;67067;46.850;7.578;2023-10-08T00:25:01;96385.69;;;8.91;51.72
77871;BME280;67067;46.850;7.578;2023-10-08T00:26:04;96388.50;;;8.96;51.86
77871;BME280;67067;46.850;7.578;2023-10-08T00:27:09;96390.75;;;8.92;51.99
77871;BME280;67067;46.850;7.578;2023-10-08T00:28:11;96390.31;;;8.96;51.91
77871;BME280;67067;46.850;7.578;2023-10-08T00:29:13;96390.16;;;8.90;52.05
77871;BME280;67067;46.850;7.578;2023-10-08T00:30:18;96396.69;;;8.88;52.03
77871;BME280;67067;46.850;7.578;2023-10-08T00:31:20;96395.84;;;8.87;52.30
77871;BME280;67067;46.850;7.578;2023-10-08T00:32:25;96395.66;;;8.89;52.53
77871;BME280;67067;46.850;7.578;2023-10-08T00:33:27;96384.34;;;8.75;52.51
77871;BME280;67067;46.850;7.578;2023-10-08T00:34:28;96392.63;;;8.85;52.24
77871;BME280;67067;46.850;7.578;2023-10-08T00:35:30;96380.00;;;8.87;51.81
77871;BME280;67067;46.850;7.578;2023-10-08T00:36:32;96388.75;;;8.88;51.93
77871;BME280;67067;46.850;7.578;2023-10-08T00:37:35;96378.19;;;8.88;52.06
77871;BME280;67067;46.850;7.578;2023-10-08T00:38:37;96383.84;;;8.91;51.63
77871;BME280;67067;46.850;7.578;2023-10-08T00:39:45;96380.41;;;8.91;52.12
77871;BME280;67067;46.850;7.578;2023-10-08T00:40:47;96386.78;;;8.76;52.11
77871;BME280;67067;46.850;7.578;2023-10-08T00:41:53;96371.31;;;8.87;51.95
77871;BME280;67067;46.850;7.578;2023-10-08T00:43:02;96380.25;;;8.86;52.22
77871;BME280;67067;46.850;7.578;2023-10-08T00:44:13;96372.91;;;8.88;52.22
77871;BME280;67067;46.850;7.578;2023-10-08T00:45:17;96370.47;;;8.86;52.25
77871;BME280;67067;46.850;7.578;2023-10-08T00:46:23;96370.28;;;8.88;52.45
77871;BME280;67067;46.850;7.578;2023-10-08T00:47:30;96371.31;;;8.87;52.56
77871;BME280;67067;46.850;7.578;2023-10-08T00:48:36;96367.25;;;8.84;52.72
77871;BME280;67067;46.850;7.578;2023-10-08T00:49:38;96368.84;;;8.85;52.66
77871;BME280;67067;46.850;7.578;2023-10-08T00:50:49;96366.44;;;8.84;52.30
77871;BME280;67067;46.850;7.578;2023-10-08T00:51:56;96366.22;;;8.85;52.38
77871;BME280;67067;46.850;7.578;2023-10-08T00:53:21;96361.16;;;8.84;52.30
77871;BME280;67067;46.850;7.578;2023-10-08T00:54:26;96363.22;;;8.82;52.21
77871;BME280;67067;46.850;7.578;2023-10-08T00:55:34;96365.25;;;8.79;52.48
77871;BME280;67067;46.850;7.578;2023-10-08T00:56:37;96357.53;;;8.78;52.29
77871;BME280;67067;46.850;7.578;2023-10-08T00:57:56;96351.47;;;8.77;52.05
77871;BME280;67067;46.850;7.578;2023-10-08T00:59:00;96359.56;;;8.83;52.13
77871;BME280;67067;46.850;7.578;2023-10-08T01:00:04;96362.97;;;8.83;52.21
77871;BME280;67067;46.850;7.578;2023-10-08T01:01:17;96361.16;;;8.84;52.29
77871;BME280;67067;46.850;7.578;2023-10-08T01:02:25;96366.44;;;8.84;52.03
77871;BME280;67067;46.850;7.578;2023-10-08T01:03:44;96356.34;;;8.74;52.12
77871;BME280;67067;46.850;7.578;2023-10-08T01:04:56;96353.84;;;8.86;51.94
77871;BME280;67067;46.850;7.578;2023-10-08T01:05:58;96354.00;;;8.91;52.12
77871;BME280;67067;46.850;7.578;2023-10-08T01:07:02;96361.94;;;8.91;52.14
77871;BME280;67067;46.850;7.578;2023-10-08T01:08:17;96351.78;;;8.88;52.12
77871;BME280;67067;46.850;7.578;2023-10-08T01:09:39;96354.88;;;8.85;52.10
77871;BME280;67067;46.850;7.578;2023-10-08T01:10:44;96355.28;;;8.82;52.00
77871;BME280;67067;46.850;7.578;2023-10-08T01:12:16;96356.53;;;8.72;52.17
77871;BME280;67067;46.850;7.578;2023-10-08T01:13:21;96363.63;;;8.78;52.13
77871;BME280;67067;46.850;7.578;2023-10-08T01:14:24;96360.16;;;8.78;52.10
77871;BME280;67067;46.850;7.578;2023-10-08T01:15:33;96349.84;;;8.76;52.16
77871;BME280;67067;46.850;7.578;2023-10-08T01:16:38;96344.56;;;8.76;52.37
77871;BME280;67067;46.850;7.578;2023-10-08T01:17:43;96350.25;;;8.73;52.30
77871;BME280;67067;46.850;7.578;2023-10-08T01:19:00;96350.06;;;8.68;52.60
77871;BME280;67067;46.850;7.578;2023-10-08T01:20:02;96344.59;;;8.70;52.46
77871;BME280;67067;46.850;7.578;2023-10-08T01:21:29;96344.19;;;8.66;52.49
77871;BME280;67067;46.850;7.578;2023-10-08T01:22:41;96350.13;;;8.61;52.48
77871;BME280;67067;46.850;7.578;2023-10-08T01:23:44;96351.75;;;8.62;52.56
77871;BME280;67067;46.850;7.578;2023-10-08T01:24:48;96347.69;;;8.60;52.54
77871;BME280;67067;46.850;7.578;2023-10-08T01:25:55;96348.69;;;8.59;52.35
77871;BME280;67067;46.850;7.578;2023-10-08T01:27:12;96342.22;;;8.55;52.67
77871;BME280;67067;46.850;7.578;2023-10-08T01:28:14;96356.25;;;8.55;52.76
77871;BME280;67067;46.850;7.578;2023-10-08T01:29:24;96353.19;;;8.52;52.95
77871;BME280;67067;46.850;7.578;2023-10-08T01:30:27;96352.44;;;8.44;52.74
77871;BME280;67067;46.850;7.578;2023-10-08T01:31:36;96347.56;;;8.41;52.80
77871;BME280;67067;46.850;7.578;2023-10-08T01:32:38;96350.81;;;8.43;52.59
77871;BME280;67067;46.850;7.578;2023-10-08T01:33:40;96353.66;;;8.42;52.69
77871;BME280;67067;46.850;7.578;2023-10-08T01:34:49;96342.72;;;8.38;52.92
77871;BME280;67067;46.850;7.578;2023-10-08T01:35:51;96343.50;;;8.39;52.98
77871;BME280;67067;46.850;7.578;2023-10-08T01:36:53;96351.25;;;8.33;53.01
77871;BME280;67067;46.850;7.578;2023-10-08T01:37:54;96356.16;;;8.30;53.17
77871;BME280;67067;46.850;7.578;2023-10-08T01:38:58;96346.63;;;8.29;53.23
77871;BME280;67067;46.850;7.578;2023-10-08T01:40:04;96350.88;;;8.30;52.91
77871;BME280;67067;46.850;7.578;2023-10-08T01:41:08;96352.50;;;8.31;52.79
77871;BME280;67067;46.850;7.578;2023-10-08T01:42:31;96343.97;;;8.29;52.80
77871;BME280;67067;46.850;7.578;2023-10-08T01:43:40;96345.59;;;8.30;53.26
77871;BME280;67067;46.850;7.578;2023-10-08T01:44:45;96346.19;;;8.32;52.88
77871;BME280;67067;46.850;7.578;2023-10-08T01:45:56;96339.31;;;8.31;53.06
77871;BME280;67067;46.850;7.578;2023-10-08T01:47:00;96341.94;;;8.31;53.19
77871;BME280;67067;46.850;7.578;2023-10-08T01:48:02;96343.16;;;8.28;53.33
77871;BME280;67067;46.850;7.578;2023-10-08T01:49:10;96347.63;;;8.28;53.14
77871;BME280;67067;46.850;7.578;2023-10-08T01:50:23;96349.69;;;8.26;53.20
77871;BME280;67067;46.850;7.578;2023-10-08T01:51:33;96349.69;;;8.26;53.48
77871;BME280;67067;46.850;7.578;2023-10-08T01:52:48;96339.53;;;8.23;53.23
77871;BME280;67067;46.850;7.578;2023-10-08T01:53:56;96345.63;;;8.23;53.25
77871;BME280;67067;46.850;7.578;2023-10-08T01:54:59;96345.63;;;8.23;53.32
77871;BME280;67067;46.850;7.578;2023-10-08T01:56:01;96346.44;;;8.24;53.44
77871;BME280;67067;46.850;7.578;2023-10-08T01:57:03;96348.06;;;8.25;53.29
77871;BME280;67067;46.850;7.578;2023-10-08T01:58:05;96350.09;;;8.23;53.07
77871;BME280;67067;46.850;7.578;2023-10-08T01:59:11;96348.50;;;8.08;53.37
77871;BME280;67067;46.850;7.578;2023-10-08T02:02:52;96349.28;;;8.15;53.35
77871;BME280;67067;46.850;7.578;2023-10-08T02:04:00;96345.81;;;8.15;53.63
77871;BME280;67067;46.850;7.578;2023-10-08T02:05:01;96351.34;;;8.00;53.70
77871;BME280;67067;46.850;7.578;2023-10-08T02:06:04;96347.06;;;7.99;53.52
77871;BME280;67067;46.850;7.578;2023-10-08T02:07:07;96347.25;;;8.11;53.38
77871;BME280;67067;46.850;7.578;2023-10-08T02:08:12;96344.44;;;8.12;53.32
77871;BME280;67067;46.850;7.578;2023-10-08T02:09:14;96334.66;;;8.13;53.21
77871;BME280;67067;46.850;7.578;2023-10-08T02:10:17;96337.31;;;8.13;53.13
77871;BME280;67067;46.850;7.578;2023-10-08T02:11:18;96339.78;;;8.01;53.39
77871;BME280;67067;46.850;7.578;2023-10-08T02:12:21;96338.31;;;8.12;53.23
77871;BME280;67067;46.850;7.578;2023-10-08T02:13:23;96333.88;;;8.12;53.13
77871;BME280;67067;46.850;7.578;2023-10-08T02:14:25;96337.13;;;8.01;53.45
77871;BME280;67067;46.850;7.578;2023-10-08T02:15:27;96336.94;;;8.09;53.21
77871;BME280;67067;46.850;7.578;2023-10-08T02:16:29;96332.03;;;8.13;53.40
77871;BME280;67067;46.850;7.578;2023-10-08T02:17:30;96340.19;;;7.98;53.43
77871;BME280;67067;46.850;7.578;2023-10-08T02:18:34;96335.50;;;8.06;53.45
77871;BME280;67067;46.850;7.578;2023-10-08T02:19:36;96332.25;;;8.11;53.23
77871;BME280;67067;46.850;7.578;2023-10-08T02:20:41;96329.81;;;8.10;53.26
77871;BME280;67067;46.850;7.578;2023-10-08T02:21:43;96333.88;;;8.12;53.31
77871;BME280;67067;46.850;7.578;2023-10-08T02:22:50;96335.31;;;8.08;53.49
77871;BME280;67067;46.850;7.578;2023-10-08T02:23:55;96332.03;;;8.06;53.27
77871;BME280;67067;46.850;7.578;2023-10-08T02:24:59;96331.44;;;8.11;53.21
77871;BME280;67067;46.850;7.578;2023-10-08T02:26:05;96325.75;;;8.07;53.37
77871;BME280;67067;46.850;7.578;2023-10-08T02:27:07;96336.94;;;8.09;53.33
77871;BME280;67067;46.850;7.578;2023-10-08T02:28:09;96330.03;;;8.08;53.20
77871;BME280;67067;46.850;7.578;2023-10-08T02:29:11;96332.69;;;8.08;53.27
77871;BME280;67067;46.850;7.578;2023-10-08T02:30:13;96334.28;;;8.09;53.38
77871;BME280;67067;46.850;7.578;2023-10-08T02:31:15;96332.69;;;8.08;53.36
77871;BME280;67067;46.850;7.578;2023-10-08T02:32:18;96337.72;;;8.10;53.60
77871;BME280;67067;46.850;7.578;2023-10-08T02:33:20;96330.63;;;8.10;53.67
77871;BME280;67067;46.850;7.578;2023-10-08T02:34:22;96330.03;;;8.08;53.59
77871;BME280;67067;46.850;7.578;2023-10-08T02:35:24;96329.03;;;8.09;53.55
77871;BME280;67067;46.850;7.578;2023-10-08T02:36:32;96331.84;;;8.07;53.37
77871;BME280;67067;46.850;7.578;2023-10-08T02:37:34;96331.06;;;7.94;53.74
77871;BME280;67067;46.850;7.578;2023-10-08T02:38:38;96329.03;;;8.02;53.54
77871;BME280;67067;46.850;7.578;2023-10-08T02:39:41;96333.06;;;8.05;53.45
77871;BME280;67067;46.850;7.578;2023-10-08T02:40:45;96330.28;;;7.86;53.83
77871;BME280;67067;46.850;7.578;2023-10-08T02:41:50;96328.03;;;7.97;53.52
77871;BME280;67067;46.850;7.578;2023-10-08T02:42:52;96327.03;;;7.84;53.60
77871;BME280;67067;46.850;7.578;2023-10-08T02:43:59;96320.94;;;7.90;53.59
77871;BME280;67067;46.850;7.578;2023-10-08T02:45:03;96325.41;;;7.90;53.65
77871;BME280;67067;46.850;7.578;2023-10-08T02:46:05;96320.94;;;7.90;53.73
77871;BME280;67067;46.850;7.578;2023-10-08T02:47:12;96322.97;;;7.88;53.70
77871;BME280;67067;46.850;7.578;2023-10-08T02:48:22;96323.41;;;7.85;53.71
77871;BME280;67067;46.850;7.578;2023-10-08T02:49:27;96323.19;;;7.87;54.05
77871;BME280;67067;46.850;7.578;2023-10-08T02:50:31;96321.78;;;7.84;54.32
77871;BME280;67067;46.850;7.578;2023-10-08T02:51:34;96317.34;;;7.85;54.11
77871;BME280;67067;46.850;7.578;2023-10-08T02:52:36;96320.19;;;7.70;54.08
77871;BME280;67067;46.850;7.578;2023-10-08T02:53:38;96320.16;;;7.83;54.05
77871;BME280;67067;46.850;7.578;2023-10-08T02:54:45;96320.75;;;7.85;53.94
77871;BME280;67067;46.850;7.578;2023-10-08T02:55:49;96319.38;;;7.69;54.13
77871;BME280;67067;46.850;7.578;2023-10-08T02:56:52;96322.19;;;7.81;54.02
77871;BME280;67067;46.850;7.578;2023-10-08T02:57:59;96324.63;;;7.83;54.20
77871;BME280;67067;46.850;7.578;2023-10-08T02:59:01;96320.97;;;7.84;53.91
77871;BME280;67067;46.850;7.578;2023-10-08T03:00:03;96329.13;;;7.69;54.37
77871;BME280;67067;46.850;7.578;2023-10-08T03:01:06;96325.84;;;7.80;53.85
77871;BME280;67067;46.850;7.578;2023-10-08T03:02:12;96324.22;;;7.79;53.97
77871;BME280;67067;46.850;7.578;2023-10-08T03:03:22;96324.22;;;7.79;53.98
77871;BME280;67067;46.850;7.578;2023-10-08T03:04:26;96323.44;;;7.79;53.98
77871;BME280;67067;46.850;7.578;2023-10-08T03:05:29;96329.72;;;7.77;53.93
77871;BME280;67067;46.850;7.578;2023-10-08T03:06:38;96324.63;;;7.76;54.28
77871;BME280;67067;46.850;7.578;2023-10-08T03:07:40;96316.13;;;7.74;54.20
77871;BME280;67067;46.850;7.578;2023-10-08T03:08:42;96316.72;;;7.76;54.24
77871;BME280;67067;46.850;7.578;2023-10-08T03:09:44;96321.22;;;7.62;54.14
77871;BME280;67067;46.850;7.578;2023-10-08T03:10:49;96316.31;;;7.72;54.02
77871;BME280;67067;46.850;7.578;2023-10-08T03:11:58;96317.34;;;7.71;54.37
77871;BME280;67067;46.850;7.578;2023-10-08T03:13:00;96318.97;;;7.72;54.10
77871;BME280;67067;46.850;7.578;2023-10-08T03:14:06;96323.44;;;7.72;54.39
77871;BME280;67067;46.850;7.578;2023-10-08T03:15:16;96319.78;;;7.73;54.34
77871;BME280;67067;46.850;7.578;2023-10-08T03:16:31;96319.78;;;7.73;54.39
77871;BME280;67067;46.850;7.578;2023-10-08T03:17:35;96316.94;;;7.74;54.30
77871;BME280;67067;46.850;7.578;2023-10-08T03:18:41;96315.72;;;7.77;54.42
77871;BME280;67067;46.850;7.578;2023-10-08T03:19:51;96315.72;;;7.77;54.48
77871;BME280;67067;46.850;7.578;2023-10-08T03:20:53;96309.47;;;7.65;54.64
77871;BME280;67067;46.850;7.578;2023-10-08T03:21:55;96313.31;;;7.75;54.44
77871;BME280;67067;46.850;7.578;2023-10-08T03:22:57;96306.38;;;7.81;54.31
77871;BME280;67067;46.850;7.578;2023-10-08T03:24:02;96308.00;;;7.82;54.02
77871;BME280;67067;46.850;7.578;2023-10-08T03:25:15;96308.00;;;7.82;54.20
77871;BME280;67067;46.850;7.578;2023-10-08T03:26:22;96307.56;;;7.85;54.18
77871;BME280;67067;46.850;7.578;2023-10-08T03:27:32;96304.34;;;7.83;54.26
77871;BME280;67067;46.850;7.578;2023-10-08T03:28:43;96312.25;;;7.83;53.96
77871;BME280;67067;46.850;7.578;2023-10-08T03:29:47;96304.34;;;7.83;54.13
77871;BME280;67067;46.850;7.578;2023-10-08T03:30:52;96309.63;;;7.83;54.03
77871;BME280;67067;46.850;7.578;2023-10-08T03:31:57;96312.84;;;7.85;54.25
77871;BME280;67067;46.850;7.578;2023-10-08T03:32:59;96318.13;;;7.85;53.92
77871;BME280;67067;46.850;7.578;2023-10-08T03:34:05;96316.50;;;7.84;54.12
77871;BME280;67067;46.850;7.578;2023-10-08T03:35:10;96311.84;;;7.86;54.01
77871;BME280;67067;46.850;7.578;2023-10-08T03:36:12;96316.69;;;7.89;54.15
77871;BME280;67067;46.850;7.578;2023-10-08T03:37:22;96313.25;;;7.89;54.13
77871;BME280;67067;46.850;7.578;2023-10-08T03:38:31;96312.03;;;7.91;53.96
77871;BME280;67067;46.850;7.578;2023-10-08T03:39:49;96312.44;;;7.88;54.04
77871;BME280;67067;46.850;7.578;2023-10-08T03:41:04;96311.00;;;7.92;54.08
77871;BME280;67067;46.850;7.578;2023-10-08T03:42:10;96311.22;;;7.91;53.91
77871;BME280;67067;46.850;7.578;2023-10-08T03:43:14;96305.94;;;7.91;54.00
77871;BME280;67067;46.850;7.578;2023-10-08T03:44:27;96314.06;;;7.89;54.13
77871;BME280;67067;46.850;7.578;2023-10-08T03:45:31;96312.44;;;7.88;53.95
77871;BME280;67067;46.850;7.578;2023-10-08T03:46:52;96310.81;;;7.87;54.14
77871;BME280;67067;46.850;7.578;2023-10-08T03:47:54;96313.69;;;7.86;54.27
77871;BME280;67067;46.850;7.578;2023-10-08T03:49:16;96312.47;;;7.82;54.14
77871;BME280;67067;46.850;7.578;2023-10-08T03:50:26;96312.47;;;7.82;54.11
77871;BME280;67067;46.850;7.578;2023-10-08T03:51:34;96308.81;;;7.83;54.00
77871;BME280;67067;46.850;7.578;2023-10-08T03:52:41;96305.16;;;7.84;54.05
77871;BME280;67067;46.850;7.578;2023-10-08T03:53:45;96307.56;;;7.85;53.88
77871;BME280;67067;46.850;7.578;2023-10-08T03:55:19;96302.91;;;7.87;54.10
77871;BME280;67067;46.850;7.578;2023-10-08T03:56:20;96308.41;;;7.79;54.55
77871;BME280;67067;46.850;7.578;2023-10-08T03:57:22;96305.72;;;7.92;54.03
77871;BME280;67067;46.850;7.578;2023-10-08T03:58:42;96308.13;;;8.01;54.13
77871;BME280;67067;46.850;7.578;2023-10-08T03:59:48;96302.66;;;8.02;54.07
77871;BME280;67067;46.850;7.578;2023-10-08T04:00:50;96309.94;;;8.07;53.82
77871;BME280;67067;46.850;7.578;2023-10-08T04:02:02;96309.13;;;8.06;53.70
77871;BME280;67067;46.850;7.578;2023-10-08T04:03:17;96307.53;;;7.99;53.61
77871;BME280;67067;46.850;7.578;2023-10-08T04:04:43;96307.53;;;7.99;53.69
77871;BME280;67067;46.850;7.578;2023-10-08T04:05:51;96308.97;;;8.01;53.52
77871;BME280;67067;46.850;7.578;2023-10-08T04:07:17;96318.06;;;7.99;53.47
77871;BME280;67067;46.850;7.578;2023-10-08T04:08:34;96313.22;;;7.96;53.47
77871;BME280;67067;46.850;7.578;2023-10-08T04:09:45;96310.59;;;7.96;53.25
77871;BME280;67067;46.850;7.578;2023-10-08T04:10:48;96311.19;;;7.98;53.50
77871;BME280;67067;46.850;7.578;2023-10-08T04:11:52;96313.28;;;7.82;53.52
77871;BME280;67067;46.850;7.578;2023-10-08T04:13:03;96313.03;;;7.90;53.32
77871;BME280;67067;46.850;7.578;2023-10-08T04:14:07;96313.44;;;7.94;53.03
77871;BME280;67067;46.850;7.578;2023-10-08T04:15:09;96317.28;;;7.91;53.31
77871;BME280;67067;46.850;7.578;2023-10-08T04:16:13;96308.19;;;7.87;53.20
77871;BME280;67067;46.850;7.578;2023-10-08T04:17:20;96313.69;;;7.86;53.45
77871;BME280;67067;46.850;7.578;2023-10-08T04:18:29;96307.56;;;7.85;53.40
77871;BME280;67067;46.850;7.578;2023-10-08T04:19:34;96309.19;;;7.86;53.50
77871;BME280;67067;46.850;7.578;2023-10-08T04:20:36;96302.53;;;7.70;53.61
77871;BME280;67067;46.850;7.578;2023-10-08T04:21:44;96306.78;;;7.78;53.37
77871;BME280;67067;46.850;7.578;2023-10-08T04:22:45;96311.66;;;7.81;53.60
77871;BME280;67067;46.850;7.578;2023-10-08T04:23:47;96307.81;;;7.77;53.45
77871;BME280;67067;46.850;7.578;2023-10-08T04:24:56;96313.09;;;7.77;53.30
77871;BME280;67067;46.850;7.578;2023-10-08T04:26:00;96318.56;;;7.75;53.60
77871;BME280;67067;46.850;7.578;2023-10-08T04:27:02;96306.41;;;7.61;53.60
77871;BME280;67067;46.850;7.578;2023-10-08T04:28:05;96310.66;;;7.69;53.60
77871;BME280;67067;46.850;7.578;2023-10-08T04:29:07;96301.16;;;7.68;53.92
77871;BME280;67067;46.850;7.578;2023-10-08T04:30:12;96308.03;;;7.69;53.83
77871;BME280;67067;46.850;7.578;2023-10-08T04:31:17;96297.69;;;7.67;54.01
77871;BME280;67067;46.850;7.578;2023-10-08T04:32:25;96307.44;;;7.67;53.77
77871;BME280;67067;46.850;7.578;2023-10-08T04:33:28;96303.19;;;7.66;53.73
77871;BME280;67067;46.850;7.578;2023-10-08T04:34:36;96297.91;;;7.66;53.63
77871;BME280;67067;46.850;7.578;2023-10-08T04:35:38;96299.97;;;7.50;53.91
77871;BME280;67067;46.850;7.578;2023-10-08T04:36:58;96289.41;;;7.57;53.78
77871;BME280;67067;46.850;7.578;2023-10-08T04:38:05;96301.38;;;7.59;53.84
77871;BME280;67067;46.850;7.578;2023-10-08T04:39:10;96298.75;;;7.59;53.70
77871;BME280;67067;46.850;7.578;2023-10-08T04:40:18;96297.72;;;7.60;53.95
77871;BME280;67067;46.850;7.578;2023-10-08T04:41:27;96296.50;;;7.56;54.12
77871;BME280;67067;46.850;7.578;2023-10-08T04:42:30;96295.50;;;7.57;53.77
77871;BME280;67067;46.850;7.578;2023-10-08T04:43:31;96293.47;;;7.59;53.76
77871;BME280;67067;46.850;7.578;2023-10-08T04:44:33;96296.13;;;7.46;53.93
77871;BME280;67067;46.850;7.578;2023-10-08T04:45:37;96293.88;;;7.56;53.78
77871;BME280;67067;46.850;7.578;2023-10-08T04:46:43;96294.28;;;7.53;54.23
77871;BME280;67067;46.850;7.578;2023-10-08T04:47:49;96297.53;;;7.55;53.78
77871;BME280;67067;46.850;7.578;2023-10-08T04:48:51;96294.28;;;7.53;53.86
77871;BME280;67067;46.850;7.578;2023-10-08T04:49:57;96301.19;;;7.54;53.97
77871;BME280;67067;46.850;7.578;2023-10-08T04:50:59;96296.50;;;7.56;53.69
77871;BME280;67067;46.850;7.578;2023-10-08T04:52:05;96297.13;;;7.58;53.93
77871;BME280;67067;46.850;7.578;2023-10-08T04:53:10;96296.09;;;7.59;53.99
77871;BME280;67067;46.850;7.578;2023-10-08T04:54:12;96294.91;;;7.48;54.22
77871;BME280;67067;46.850;7.578;2023-10-08T04:55:24;96295.50;;;7.57;53.94
77871;BME280;67067;46.850;7.578;2023-10-08T04:56:30;96294.06;;;7.61;54.13
77871;BME280;67067;46.850;7.578;2023-10-08T04:57:34;96295.88;;;7.61;54.15
77871;BME280;67067;46.850;7.578;2023-10-08T04:58:36;96301.00;;;7.49;54.34
77871;BME280;67067;46.850;7.578;2023-10-08T04:59:38;96297.13;;;7.58;54.14
77871;BME280;67067;46.850;7.578;2023-10-08T05:00:40;96295.28;;;7.59;54.08
77871;BME280;67067;46.850;7.578;2023-10-08T05:01:45;96298.50;;;7.61;54.04
77871;BME280;67067;46.850;7.578;2023-10-08T05:02:58;96300.34;;;7.60;53.93
77871;BME280;67067;46.850;7.578;2023-10-08T05:04:05;96307.25;;;7.61;54.22
77871;BME280;67067;46.850;7.578;2023-10-08T05:05:07;96297.50;;;7.62;54.41
77871;BME280;67067;46.850;7.578;2023-10-08T05:06:24;96304.00;;;7.59;54.07
77871;BME280;67067;46.850;7.578;2023-10-08T05:07:39;96296.50;;;7.56;54.08
77871;BME280;67067;46.850;7.578;2023-10-08T05:08:46;96298.31;;;7.56;54.31
77871;BME280;67067;46.850;7.578;2023-10-08T05:10:00;96304.63;;;7.55;54.33
77871;BME280;67067;46.850;7.578;2023-10-08T05:11:05;96295.91;;;7.54;54.46
77871;BME280;67067;46.850;7.578;2023-10-08T05:12:39;96297.53;;;7.48;54.00
77871;BME280;67067;46.850;7.578;2023-10-08T05:14:03;96299.97;;;7.50;54.46
77871;BME280;67067;46.850;7.578;2023-10-08T05:15:08;96301.41;;;7.46;54.27
77871;BME280;67067;46.850;7.578;2023-10-08T05:16:16;96306.25;;;7.49;54.54
77871;BME280;67067;46.850;7.578;2023-10-08T05:17:36;96300.56;;;7.45;54.68
77871;BME280;67067;46.850;7.578;2023-10-08T05:18:57;96301.81;;;7.43;54.56
77871;BME280;67067;46.850;7.578;2023-10-08T05:20:21;96305.47;;;7.42;54.37
77871;BME280;67067;46.850;7.578;2023-10-08T05:21:32;96308.09;;;7.42;54.54
77871;BME280;67067;46.850;7.578;2023-10-08T05:22:55;96304.81;;;7.40;54.42
77871;BME280;67067;46.850;7.578;2023-10-08T05:24:09;96302.00;;;7.41;54.38
77871;BME280;67067;46.850;7.578;2023-10-08T05:25:14;96302.00;;;7.41;54.29
77871;BME280;67067;46.850;7.578;2023-10-08T05:26:18;96302.81;;;7.42;54.52
77871;BME280;67067;46.850;7.578;2023-10-08T05:27:40;96303.81;;;7.41;54.27
77871;BME280;67067;46.850;7.578;2023-10-08T05:28:53;96306.25;;;7.42;54.28
77871;BME280;67067;46.850;7.578;2023-10-08T05:30:28;96302.81;;;7.42;54.19
77871;BME280;67067;46.850;7.578;2023-10-08T05:31:43;96310.72;;;7.42;54.34
77871;BME280;67067;46.850;7.578;2023-10-08T05:32:55;96303.44;;;7.44;54.13
77871;BME280;67067;46.850;7.578;2023-10-08T05:34:16;96314.16;;;7.36;54.58
77871;BME280;67067;46.850;7.578;2023-10-08T05:35:40;96310.91;;;7.33;54.31
77871;BME280;67067;46.850;7.578;2023-10-08T05:36:44;96313.13;;;7.37;54.39
77871;BME280;67067;46.850;7.578;2023-10-08T05:38:17;96308.88;;;7.36;54.28
77871;BME280;67067;46.850;7.578;2023-10-08T05:39:31;96315.38;;;7.33;54.28
77871;BME280;67067;46.850;7.578;2023-10-08T05:40:57;96317.81;;;7.34;54.42
77871;BME280;67067;46.850;7.578;2023-10-08T05:42:03;96312.53;;;7.34;54.59
77871;BME280;67067;46.850;7.578;2023-10-08T05:43:25;96311.75;;;7.34;54.49
77871;BME280;67067;46.850;7.578;2023-10-08T05:44:44;96312.13;;;7.38;54.55
77871;BME280;67067;46.850;7.578;2023-10-08T05:46:13;96305.84;;;7.39;54.47
77871;BME280;67067;46.850;7.578;2023-10-08T05:47:25;96305.25;;;7.37;54.39
77871;BME280;67067;46.850;7.578;2023-10-08T05:48:33;96305.47;;;7.42;54.24
77871;BME280;67067;46.850;7.578;2023-10-08T05:49:40;96310.50;;;7.43;54.35
77871;BME280;67067;46.850;7.578;2023-10-08T05:51:06;96307.47;;;7.40;54.51
77871;BME280;67067;46.850;7.578;2023-10-08T05:52:15;96311.72;;;7.47;54.33
77871;BME280;67067;46.850;7.578;2023-10-08T05:53:29;96308.06;;;7.48;54.27
77871;BME280;67067;46.850;7.578;2023-10-08T05:54:45;96316.38;;;7.52;54.17
77871;BME280;67067;46.850;7.578;2023-10-08T05:56:10;96311.91;;;7.53;54.23
77871;BME280;67067;46.850;7.578;2023-10-08T05:57:30;96316.75;;;7.56;54.20
77871;BME280;67067;46.850;7.578;2023-10-08T05:58:40;96314.34;;;7.54;54.42
77871;BME280;67067;46.850;7.578;2023-10-08T05:59:47;96316.56;;;7.57;54.56
77871;BME280;67067;46.850;7.578;2023-10-08T06:01:01;96314.53;;;7.59;54.46
77871;BME280;67067;46.850;7.578;2023-10-08T06:02:10;96318.19;;;7.58;54.39
77871;BME280;67067;46.850;7.578;2023-10-08T06:03:31;96319.81;;;7.59;54.67
77871;BME280;67067;46.850;7.578;2023-10-08T06:04:41;96324.66;;;7.62;54.32